Terminal Aerodrome Forecast
Issued by NWS Sterling, VA

Current Version | Previous Version | Graphics & Text | Print | Product List | Glossary On
Versions: 1 2 3 4 5 6 7 8 9 10 11 12 13 14 15 16 17 18 19 20 21 22
000
FTUS41 KLWX 280543
TAFMRB
TAF
KMRB 280543Z 2806/2906 04004KT 5SM BR SCT050
     FM280800 VRB03KT 3SM BR SCT050
     FM281100 VRB03KT 3SM BR SCT050
     FM281300 03004KT P6SM SCT050=

USA.gov is the U.S. government's official web portal to all federal, state and local government web resources and services.